Time;durP1;ratioP1;P1;durP2;ratioP2;P2;SDS_P1;SDS_P2;PMS_P1;PMS_P2;Temp;Humidity;BMP_temperature;BMP_pressure;BME280_temperature;BME280_humidity;BME280_pressure;Samples;Min_cycle;Max_cycle;Signal;HPM_P1;HPM_P2
2022/06/18 00:02:18;;;;;;;1.60;0.88;;;;;;;19.12;nan;101009.97;4993416;28;20092;-71
2022/06/18 00:04:46;;;;;;;1.42;0.85;;;;;;;19.07;nan;101004.38;5005338;28;20067;-71
2022/06/18 00:07:15;;;;;;;1.25;0.85;;;;;;;19.04;nan;100999.41;5000002;28;20509;-70
2022/06/18 00:09:44;;;;;;;1.13;0.80;;;;;;;19.01;nan;101002.47;4955782;28;1035232;-70
2022/06/18 00:15:03;;;;;;;1.38;0.60;;;;;;;18.93;nan;100995.41;5003125;28;20037;-71
2022/06/18 00:17:29;;;;;;;0.50;0.50;;;;;;;18.96;nan;100997.69;4997330;28;20513;-70
2022/06/18 00:19:55;;;;;;;0.70;0.60;;;;;;;19.02;nan;100988.03;4976205;28;20102;-71
2022/06/18 00:22:22;;;;;;;0.50;0.50;;;;;;;19.04;nan;100986.00;4989013;28;20041;-71
2022/06/18 00:24:49;;;;;;;0.80;0.70;;;;;;;19.02;nan;100993.41;4990159;28;20026;-71
2022/06/18 00:27:16;;;;;;;0.88;0.60;;;;;;;18.99;nan;100988.44;4989902;28;20455;-71
2022/06/18 00:29:42;;;;;;;0.90;0.70;;;;;;;18.96;nan;100983.47;4990169;28;20502;-71
2022/06/18 00:32:08;;;;;;;0.82;0.63;;;;;;;18.94;nan;100974.78;4966491;28;20034;-71
2022/06/18 00:34:33;;;;;;;0.65;0.50;;;;;;;18.88;nan;100982.59;4973689;28;20121;-71
2022/06/18 00:36:59;;;;;;;1.30;0.70;;;;;;;18.83;nan;100979.69;4994692;28;20189;-71
2022/06/18 00:39:27;;;;;;;1.10;0.68;;;;;;;18.77;nan;100976.94;4989807;28;20114;-71
2022/06/18 00:41:52;;;;;;;0.85;0.80;;;;;;;18.70;nan;100971.50;4989560;28;20042;-71
2022/06/18 00:44:27;;;;;;;1.83;1.10;;;;;;;18.63;nan;100967.94;4996433;28;20519;-71
2022/06/18 00:47:20;;;;;;;0.90;0.70;;;;;;;18.56;nan;100965.22;5003184;28;20049;-71
2022/06/18 00:49:54;;;;;;;1.30;0.95;;;;;;;18.53;nan;100967.47;4989858;28;20535;-71
2022/06/18 00:52:30;;;;;;;1.05;0.70;;;;;;;18.49;nan;100960.81;4988534;28;20046;-71
2022/06/18 00:55:03;;;;;;;0.70;0.60;;;;;;;18.48;nan;100961.84;4989090;28;20399;-71
2022/06/18 00:57:48;;;;;;;0.98;0.70;;;;;;;18.48;nan;100962.69;4989973;28;20041;-71
2022/06/18 01:00:19;;;;;;;0.82;0.60;;;;;;;18.49;nan;100969.69;4970669;28;20031;-71
2022/06/18 01:02:47;;;;;;;1.38;0.80;;;;;;;18.49;nan;100968.84;4987237;28;20089;-71
2022/06/18 01:05:14;;;;;;;1.10;0.60;;;;;;;18.48;nan;100960.00;4984818;28;20034;-71
2022/06/18 01:07:39;;;;;;;0.65;0.45;;;;;;;18.49;nan;100956.28;4985505;28;20117;-71
2022/06/18 01:10:13;;;;;;;0.50;0.50;;;;;;;18.50;nan;100960.63;4986681;28;20511;-71
2022/06/18 01:12:39;;;;;;;0.80;0.50;;;;;;;18.49;nan;100955.47;4986729;28;20407;-71
2022/06/18 01:15:08;;;;;;;0.73;0.60;;;;;;;18.46;nan;100965.53;4988750;28;20126;-71
2022/06/18 01:17:36;;;;;;;1.20;0.70;;;;;;;18.46;nan;100957.50;4987655;28;20100;-71
2022/06/18 01:20:05;;;;;;;0.80;0.60;;;;;;;18.46;nan;100956.69;4985784;28;20034;-71
2022/06/18 01:23:06;;;;;;;1.00;0.60;;;;;;;18.46;nan;100948.66;4985704;28;20100;-71
2022/06/18 01:25:31;;;;;;;0.50;0.50;;;;;;;18.43;nan;100944.50;4988660;28;20041;-71
2022/06/18 01:27:58;;;;;;;0.45;0.45;;;;;;;18.43;nan;100944.50;4991266;28;20034;-71
2022/06/18 01:30:30;;;;;;;0.75;0.50;;;;;;;18.42;nan;100947.38;4989215;28;20125;-71
2022/06/18 01:32:56;;;;;;;0.75;0.50;;;;;;;18.39;nan;100940.56;4990596;28;20129;-71
2022/06/18 01:35:23;;;;;;;0.45;0.40;;;;;;;18.38;nan;100940.75;4989744;28;20053;-71
2022/06/18 01:37:48;;;;;;;0.30;0.30;;;;;;;18.36;nan;100932.91;4993341;28;20468;-71
2022/06/18 01:40:22;;;;;;;0.90;0.50;;;;;;;18.34;nan;100931.44;4989671;28;20109;-71
2022/06/18 01:42:48;;;;;;;0.75;0.60;;;;;;;18.31;nan;100938.03;4991183;28;20399;-71
2022/06/18 01:45:28;;;;;;;0.82;0.60;;;;;;;18.27;nan;100925.22;4987703;28;20069;-71
2022/06/18 01:48:00;;;;;;;0.60;0.60;;;;;;;18.23;nan;100924.75;4988584;28;20049;-71
2022/06/18 01:50:36;;;;;;;0.90;0.60;;;;;;;18.19;nan;100918.97;4988150;28;20660;-71
2022/06/18 01:53:08;;;;;;;0.85;0.50;;;;;;;18.17;nan;100922.88;4989541;28;20042;-71
2022/06/18 01:55:42;;;;;;;0.93;0.60;;;;;;;18.12;nan;100923.44;4988635;28;20530;-71
2022/06/18 01:58:16;;;;;;;1.27;0.77;;;;;;;18.05;nan;100927.91;4969318;28;20049;-71
2022/06/18 02:00:46;;;;;;;1.48;0.80;;;;;;;17.98;nan;100924.34;4988871;28;20042;-71
2022/06/18 02:03:11;;;;;;;1.15;0.80;;;;;;;17.92;nan;100925.91;4989198;28;20029;-71
2022/06/18 02:05:37;;;;;;;1.52;0.90;;;;;;;17.87;nan;100931.00;4988089;28;20026;-71
2022/06/18 02:08:04;;;;;;;1.80;1.00;;;;;;;17.82;nan;100930.75;4990256;28;20050;-71
2022/06/18 02:10:38;;;;;;;1.90;1.10;;;;;;;17.78;nan;100924.06;4989508;28;20038;-71
2022/06/18 02:13:05;;;;;;;0.80;0.80;;;;;;;17.73;nan;100937.19;4990392;28;20025;-71
2022/06/18 02:15:35;;;;;;;1.13;0.80;;;;;;;17.70;nan;100937.56;4985462;28;20050;-71
2022/06/18 02:18:05;;;;;;;0.82;0.70;;;;;;;17.66;nan;100942.47;4986259;28;20050;-71
2022/06/18 02:20:34;;;;;;;0.90;0.60;;;;;;;17.68;nan;100942.28;4989225;28;20614;-71
2022/06/18 02:22:59;;;;;;;0.70;0.60;;;;;;;17.72;nan;100938.22;4990869;28;20050;-71
2022/06/18 02:25:30;;;;;;;0.50;0.50;;;;;;;17.74;nan;100930.84;4985453;28;20065;-71
2022/06/18 02:28:01;;;;;;;0.93;0.68;;;;;;;17.78;nan;100929.41;4983185;28;20359;-71
2022/06/18 02:30:35;;;;;;;0.70;0.60;;;;;;;17.76;nan;100934.16;4972314;28;20034;-71
2022/06/18 02:33:19;;;;;;;0.77;0.70;;;;;;;17.70;nan;100927.69;4966758;28;20256;-71
2022/06/18 02:35:45;;;;;;;1.13;0.63;;;;;;;17.67;nan;100928.09;4986094;28;20046;-71
2022/06/18 02:38:21;;;;;;;0.80;0.53;;;;;;;17.68;nan;100931.59;4988544;28;20049;-71
2022/06/18 02:40:46;;;;;;;0.65;0.50;;;;;;;17.66;nan;100934.44;4987895;28;20041;-71
2022/06/18 02:43:13;;;;;;;1.00;0.60;;;;;;;17.67;nan;100928.09;4988996;28;20038;-71
2022/06/18 02:45:39;;;;;;;0.70;0.57;;;;;;;17.67;nan;100929.94;4987664;28;20507;-71
2022/06/18 02:48:07;;;;;;;0.55;0.55;;;;;;;17.69;nan;100933.25;4994554;28;20049;-71
2022/06/18 02:50:48;;;;;;;0.70;0.60;;;;;;;17.70;nan;100929.56;4987584;28;20039;-71
2022/06/18 02:53:13;;;;;;;0.75;0.60;;;;;;;17.70;nan;100929.56;4988043;28;20488;-71
2022/06/18 02:55:49;;;;;;;0.98;0.60;;;;;;;17.69;nan;100928.72;4988592;28;20038;-71
2022/06/18 02:58:19;;;;;;;0.70;0.60;;;;;;;17.63;nan;100919.59;4987656;28;20030;-71
2022/06/18 03:00:48;;;;;;;0.63;0.60;;;;;;;17.59;nan;100929.03;4989331;28;20116;-71
2022/06/18 03:03:15;;;;;;;0.50;0.50;;;;;;;17.58;nan;100929.22;4972081;28;20073;-71
2022/06/18 03:05:41;;;;;;;0.73;0.60;;;;;;;17.52;nan;100928.13;4988029;28;20502;-71
2022/06/18 03:08:07;;;;;;;0.50;0.50;;;;;;;17.49;nan;100935.69;4991926;28;20044;-71
2022/06/18 03:13:18;;;;;;;0.70;0.50;;;;;;;17.41;nan;100924.06;4990570;28;20088;-71
2022/06/18 03:15:48;;;;;;;0.70;0.65;;;;;;;17.41;nan;100925.94;4987654;28;20046;-71
2022/06/18 03:18:15;;;;;;;0.93;0.68;;;;;;;17.38;nan;100927.13;4988044;28;20050;-71
2022/06/18 03:20:55;;;;;;;0.95;0.60;;;;;;;17.36;nan;100921.13;4990885;28;20100;-71
2022/06/18 03:23:23;;;;;;;1.25;0.70;;;;;;;17.37;nan;100917.44;4988015;28;20428;-71
2022/06/18 03:25:49;;;;;;;1.70;0.70;;;;;;;17.38;nan;100924.47;4986486;28;20325;-70
2022/06/18 03:28:14;;;;;;;0.80;0.63;;;;;;;17.39;nan;100911.91;4990056;28;20040;-71
2022/06/18 03:30:41;;;;;;;0.65;0.55;;;;;;;17.38;nan;100921.78;4988189;28;20046;-70
2022/06/18 03:33:08;;;;;;;1.30;0.80;;;;;;;17.36;nan;100918.47;4988793;28;20487;-70
2022/06/18 03:35:33;;;;;;;1.40;0.80;;;;;;;17.34;nan;100919.66;4987338;28;20077;-70
2022/06/18 03:37:59;;;;;;;2.10;0.90;;;;;;;17.29;nan;100920.22;4989671;28;20037;-70
2022/06/18 03:40:24;;;;;;;0.95;0.70;;;;;;;17.27;nan;100924.09;4987623;28;21057;-70
2022/06/18 03:42:51;;;;;;;1.50;0.75;;;;;;;17.25;nan;100920.78;4988928;28;20359;-70
2022/06/18 03:45:17;;;;;;;1.40;0.93;;;;;;;17.26;nan;100931.28;4988511;28;20041;-71
2022/06/18 03:47:43;;;;;;;0.95;0.80;;;;;;;17.29;nan;100922.06;4987367;28;20093;-70
2022/06/18 03:50:13;;;;;;;0.88;0.65;;;;;;;17.33;nan;100934.06;4989515;28;20045;-71
2022/06/18 03:52:39;;;;;;;0.60;0.55;;;;;;;17.35;nan;100932.00;4987449;28;20447;-70
2022/06/18 03:55:05;;;;;;;0.70;0.60;;;;;;;17.40;nan;100935.78;4988365;28;20038;-71
2022/06/18 03:57:30;;;;;;;0.77;0.70;;;;;;;17.47;nan;100935.88;4987246;28;20054;-70
2022/06/18 03:59:55;;;;;;;0.50;0.50;;;;;;;17.54;nan;100939.47;4987041;28;20045;-71
2022/06/18 04:02:20;;;;;;;0.88;0.60;;;;;;;17.64;nan;100939.16;4987673;28;20054;-70
2022/06/18 04:04:46;;;;;;;0.75;0.50;;;;;;;17.75;nan;100935.97;4987609;28;20042;-71
2022/06/18 04:07:17;;;;;;;0.70;0.60;;;;;;;17.84;nan;100934.06;4988738;28;20041;-71
2022/06/18 04:09:43;;;;;;;0.77;0.60;;;;;;;17.88;nan;100938.03;4987462;28;20034;-71
2022/06/18 04:12:09;;;;;;;0.80;0.63;;;;;;;17.90;nan;100944.00;4987268;28;20195;-71
2022/06/18 04:14:35;;;;;;;0.80;0.80;;;;;;;17.93;nan;100943.63;4986412;28;20045;-70
2022/06/18 04:17:01;;;;;;;1.00;0.70;;;;;;;17.95;nan;100946.94;4986208;28;20113;-71
2022/06/18 04:19:27;;;;;;;0.65;0.60;;;;;;;17.98;nan;100946.56;4987923;28;20046;-70
2022/06/18 04:21:52;;;;;;;0.70;0.60;;;;;;;18.03;nan;100946.81;4992767;28;20499;-70
2022/06/18 04:24:18;;;;;;;0.90;0.70;;;;;;;18.10;nan;100946.06;4988274;28;21256;-71
2022/06/18 04:26:43;;;;;;;0.88;0.70;;;;;;;18.15;nan;100955.16;4987216;28;20072;-71
2022/06/18 04:29:09;;;;;;;0.82;0.70;;;;;;;18.22;nan;100948.03;4987038;28;20141;-70
2022/06/18 04:31:34;;;;;;;1.08;0.60;;;;;;;18.31;nan;100951.41;4965842;28;20627;-70
2022/06/18 04:33:59;;;;;;;2.25;0.75;;;;;;;18.42;nan;100955.41;4988509;28;20034;-71
2022/06/18 04:36:37;;;;;;;1.10;0.70;;;;;;;18.51;nan;100956.94;4988848;28;20518;-71
2022/06/18 04:39:03;;;;;;;1.25;0.68;;;;;;;18.58;nan;100955.13;4971787;28;20848;-70
2022/06/18 04:41:30;;;;;;;0.82;0.70;;;;;;;18.67;nan;100950.47;4989425;28;20054;-71
2022/06/18 04:43:56;;;;;;;0.70;0.60;;;;;;;18.76;nan;100954.69;4988823;28;20026;-71
2022/06/18 04:46:21;;;;;;;0.52;0.50;;;;;;;18.86;nan;100951.66;4987860;28;20042;-71
2022/06/18 04:48:47;;;;;;;1.05;0.70;;;;;;;18.93;nan;100947.19;4986900;28;20058;-71
2022/06/18 04:51:12;;;;;;;1.35;0.80;;;;;;;19.03;nan;100949.50;4988177;28;20125;-71
2022/06/18 04:53:37;;;;;;;0.90;0.70;;;;;;;19.15;nan;100944.41;4987900;28;20034;-71
2022/06/18 04:56:03;;;;;;;1.03;0.77;;;;;;;19.21;nan;100948.97;4988310;28;20034;-70
2022/06/18 04:58:29;;;;;;;0.90;0.60;;;;;;;19.28;nan;100941.78;4986827;28;20361;-71
2022/06/18 05:00:55;;;;;;;2.03;0.90;;;;;;;19.34;nan;100943.69;4992072;28;20057;-71
2022/06/18 05:03:21;;;;;;;1.45;1.00;;;;;;;19.39;nan;100943.09;4992951;28;20121;-71
2022/06/18 05:05:47;;;;;;;1.58;1.00;;;;;;;19.45;nan;100944.97;4980379;28;21666;-71
2022/06/18 05:08:13;;;;;;;2.33;1.33;;;;;;;19.56;nan;100948.94;4970008;28;20045;-71
2022/06/18 05:10:38;;;;;;;2.08;1.05;;;;;;;19.66;nan;100947.53;4991366;28;20034;-71
2022/06/18 05:13:05;;;;;;;2.30;1.35;;;;;;;19.75;nan;100937.47;4990800;28;20026;-72
2022/06/18 05:15:31;;;;;;;2.38;1.23;;;;;;;19.87;nan;100935.03;4990726;28;20509;-71
2022/06/18 05:17:58;;;;;;;2.10;1.30;;;;;;;20.00;nan;100931.53;4992286;28;20094;-70
2022/06/18 05:20:24;;;;;;;2.20;1.40;;;;;;;20.06;nan;100936.91;4990550;28;20042;-71
2022/06/18 05:22:49;;;;;;;1.80;1.10;;;;;;;20.14;nan;100930.50;4990862;28;20034;-71
2022/06/18 05:25:16;;;;;;;2.88;1.17;;;;;;;20.29;nan;100924.97;4992450;28;20503;-71
2022/06/18 05:27:42;;;;;;;2.20;1.20;;;;;;;20.41;nan;100928.69;4990420;28;20068;-71
2022/06/18 05:30:11;;;;;;;3.47;1.33;;;;;;;20.55;nan;100924.13;4991752;28;20035;-71
2022/06/18 05:32:37;;;;;;;3.25;1.42;;;;;;;20.64;nan;100916.69;4990884;28;20049;-71
2022/06/18 05:35:03;;;;;;;3.13;1.45;;;;;;;20.75;nan;100916.06;4991784;28;20035;-71
2022/06/18 05:37:31;;;;;;;2.03;1.15;;;;;;;20.92;nan;100919.13;4992908;28;20093;-71
2022/06/18 05:39:56;;;;;;;1.48;1.00;;;;;;;21.10;nan;100919.31;4989975;28;20401;-71
2022/06/18 05:42:22;;;;;;;2.20;1.30;;;;;;;21.25;nan;100913.66;4991381;28;20050;-71
2022/06/18 05:44:48;;;;;;;1.80;1.17;;;;;;;21.44;nan;100913.84;4990474;28;20515;-71
2022/06/18 05:47:17;;;;;;;1.52;1.10;;;;;;;21.63;nan;100912.91;4990911;28;20050;-71
2022/06/18 05:49:43;;;;;;;1.60;1.10;;;;;;;21.91;nan;100909.03;4991287;28;20085;-71
2022/06/18 05:52:09;;;;;;;1.83;1.20;;;;;;;22.27;nan;100905.66;4991270;28;20435;-71
2022/06/18 05:54:35;;;;;;;1.45;1.00;;;;;;;22.61;nan;100906.19;4990962;28;20041;-71
2022/06/18 05:57:01;;;;;;;1.85;1.00;;;;;;;23.04;nan;100905.34;4991691;28;20286;-71
2022/06/18 05:59:26;;;;;;;1.30;1.05;;;;;;;23.40;nan;100909.88;4991548;28;20380;-71
2022/06/18 06:01:56;;;;;;;1.45;0.90;;;;;;;23.82;nan;100907.28;4989628;28;20092;-72
2022/06/18 06:04:21;;;;;;;2.13;0.90;;;;;;;24.57;nan;100903.16;4989025;28;20431;-72
2022/06/18 06:06:46;;;;;;;1.07;0.77;;;;;;;25.17;nan;100911.03;4987979;28;20398;-71
2022/06/18 06:09:13;;;;;;;1.30;0.90;;;;;;;25.41;nan;100906.34;4991594;28;20531;-72
2022/06/18 06:11:38;;;;;;;1.02;0.80;;;;;;;25.71;nan;100918.00;4990236;28;20369;-72
2022/06/18 06:14:04;;;;;;;0.90;0.70;;;;;;;26.05;nan;100914.31;4989964;28;20134;-71
2022/06/18 06:16:31;;;;;;;2.50;0.90;;;;;;;26.18;nan;100917.75;4989423;28;20034;-72
2022/06/18 06:18:56;;;;;;;2.67;1.10;;;;;;;26.52;nan;100924.00;4973561;28;20042;-72
2022/06/18 06:21:22;;;;;;;1.35;1.00;;;;;;;26.68;nan;100920.47;4991030;28;20030;-72
2022/06/18 06:23:47;;;;;;;1.50;1.00;;;;;;;26.80;nan;100919.53;4988913;28;20038;-72
2022/06/18 06:26:26;;;;;;;1.40;0.80;;;;;;;27.20;nan;100916.56;4990307;28;20454;-72
2022/06/18 06:28:52;;;;;;;1.20;0.90;;;;;;;27.53;nan;100917.50;4990117;28;20053;-72
2022/06/18 06:31:18;;;;;;;3.50;0.80;;;;;;;27.77;nan;100917.16;4989828;28;20482;-72
2022/06/18 06:33:43;;;;;;;1.48;1.02;;;;;;;28.00;nan;100910.63;4988880;28;20058;-72
2022/06/18 06:36:11;;;;;;;1.65;0.90;;;;;;;28.02;nan;100903.84;4990154;28;20042;-72
2022/06/18 06:38:37;;;;;;;2.55;1.08;;;;;;;28.29;nan;100913.84;4991917;28;20038;-72
2022/06/18 06:41:05;;;;;;;1.58;1.00;;;;;;;28.61;nan;100915.75;4990485;28;20629;-72
2022/06/18 06:43:30;;;;;;;1.75;1.17;;;;;;;28.73;nan;100914.44;4990470;28;20049;-72
2022/06/18 06:45:56;;;;;;;1.88;1.10;;;;;;;28.87;nan;100914.78;4971106;28;20039;-72
2022/06/18 06:48:21;;;;;;;2.87;1.20;;;;;;;29.11;nan;100908.94;4989261;28;20081;-72
2022/06/18 06:50:48;;;;;;;2.17;1.20;;;;;;;29.31;nan;100909.00;4989567;28;20778;-72
2022/06/18 06:53:14;;;;;;;1.55;1.17;;;;;;;29.53;nan;100905.25;4987016;28;20372;-72
2022/06/18 06:58:24;;;;;;;2.88;1.10;;;;;;;30.05;nan;100920.59;4985002;28;20181;-72
2022/06/18 07:00:54;;;;;;;2.15;1.27;;;;;;;30.23;nan;100911.88;4989533;28;20081;-72
2022/06/18 07:03:25;;;;;;;;;;;;;;;30.35;nan;100903.44;4970961;28;20366;-72
2022/06/18 07:05:51;;;;;;;1.35;1.02;;;;;;;30.60;nan;100902.56;4989331;28;19924;-72
2022/06/18 07:08:16;;;;;;;1.88;1.00;;;;;;;30.89;nan;100904.69;4989765;28;20384;-73
2022/06/18 07:10:43;;;;;;;1.67;1.00;;;;;;;31.18;nan;100901.28;4983223;28;20038;-72
2022/06/18 07:13:08;;;;;;;2.33;1.27;;;;;;;31.10;nan;100900.75;4984423;28;20034;-72
2022/06/18 07:15:34;;;;;;;2.13;1.13;;;;;;;31.30;nan;100899.88;4990703;28;20064;-72
2022/06/18 07:18:01;;;;;;;2.42;1.30;;;;;;;31.37;nan;100896.81;4990046;28;20034;-72
2022/06/18 07:20:27;;;;;;;1.98;1.20;;;;;;;31.25;nan;100891.69;4956372;28;20037;-72
2022/06/18 07:22:54;;;;;;;2.88;1.30;;;;;;;31.36;nan;100886.16;4988254;28;20128;-72
2022/06/18 07:25:19;;;;;;;3.78;1.42;;;;;;;31.49;nan;100886.41;4973535;28;20056;-72
2022/06/18 07:27:45;;;;;;;2.08;1.20;;;;;;;31.67;nan;100881.34;4989300;28;20515;-72
2022/06/18 07:30:11;;;;;;;2.28;1.10;;;;;;;31.77;nan;100886.72;4989125;28;20042;-72
2022/06/18 07:32:43;;;;;;;2.33;1.40;;;;;;;31.86;nan;100886.94;4989358;28;20518;-73
2022/06/18 07:35:15;;;;;;;2.13;1.20;;;;;;;32.23;nan;100889.13;4990414;28;20086;-72
2022/06/18 07:37:40;;;;;;;2.40;1.42;;;;;;;32.44;nan;100887.00;4992187;28;20039;-72
2022/06/18 07:40:06;;;;;;;1.70;1.10;;;;;;;32.64;nan;100879.69;4989358;28;20045;-72
2022/06/18 07:42:31;;;;;;;1.50;0.95;;;;;;;32.98;nan;100876.78;4990496;28;20062;-72
2022/06/18 07:44:57;;;;;;;2.42;1.20;;;;;;;33.13;nan;100876.63;4989306;28;20038;-72
2022/06/18 07:47:22;;;;;;;1.70;1.00;;;;;;;33.31;nan;100872.25;4991230;28;20043;-72
2022/06/18 07:49:47;;;;;;;2.40;1.10;;;;;;;33.40;nan;100867.75;4988830;28;20384;-72
2022/06/18 07:52:14;;;;;;;1.52;1.13;;;;;;;33.59;nan;100861.47;4969949;28;20029;-73
2022/06/18 07:54:41;;;;;;;2.00;1.13;;;;;;;33.85;nan;100867.34;4991394;28;20073;-72
2022/06/18 07:57:06;;;;;;;2.03;1.20;;;;;;;34.10;nan;100860.63;4991789;28;20285;-72
2022/06/18 07:59:32;;;;;;;2.35;1.10;;;;;;;34.18;nan;100868.19;4991360;28;20042;-72
2022/06/18 08:01:57;;;;;;;;;;;;;;;34.39;nan;100854.06;4980467;28;20043;-72
2022/06/18 08:04:22;;;;;;;;;;;;;;;34.68;nan;100856.50;4990881;28;19921;-73
2022/06/18 08:06:48;;;;;;;2.10;1.00;;;;;;;34.77;nan;100843.69;4991146;28;19918;-73
2022/06/18 08:09:14;;;;;;;2.00;1.15;;;;;;;35.10;nan;100846.31;4972423;28;20784;-72
2022/06/18 08:11:40;;;;;;;1.45;1.05;;;;;;;35.33;nan;100849.06;4987863;28;20038;-73
2022/06/18 08:14:06;;;;;;;1.98;1.00;;;;;;;35.34;nan;100846.03;4986955;28;20117;-73
2022/06/18 08:16:32;;;;;;;2.03;1.00;;;;;;;35.63;nan;100847.56;4990120;28;20182;-72
2022/06/18 08:18:57;;;;;;;1.52;0.85;;;;;;;35.79;nan;100846.06;4987628;28;20038;-72
2022/06/18 08:21:30;;;;;;;2.13;1.10;;;;;;;35.96;nan;100848.09;4990680;28;20283;-72
2022/06/18 08:24:01;;;;;;;1.40;0.93;;;;;;;36.36;nan;100850.91;4987606;28;20273;-73
2022/06/18 08:26:27;;;;;;;1.77;1.15;;;;;;;36.59;nan;100840.66;4991438;28;20038;-72
2022/06/18 08:28:54;;;;;;;1.85;1.20;;;;;;;36.80;nan;100846.34;4989728;28;20397;-73
2022/06/18 08:31:19;;;;;;;1.90;0.80;;;;;;;37.29;nan;100847.09;4990300;28;20031;-71
2022/06/18 08:33:45;;;;;;;1.80;1.13;;;;;;;37.73;nan;100838.78;4990367;28;20521;-73
2022/06/18 08:36:17;;;;;;;1.33;1.00;;;;;;;37.95;nan;100837.75;4992359;28;20038;-73
2022/06/18 08:38:46;;;;;;;1.70;0.90;;;;;;;38.31;nan;100839.31;4996146;28;20305;-73
2022/06/18 08:41:34;;;;;;;1.55;0.90;;;;;;;38.40;nan;100842.81;4994184;28;20057;-72
2022/06/18 08:44:02;;;;;;;1.92;1.00;;;;;;;38.66;nan;100832.47;4992347;28;20038;-73
2022/06/18 08:46:52;;;;;;;1.30;0.90;;;;;;;39.09;nan;100836.06;4994887;28;20096;-72
2022/06/18 08:49:35;;;;;;;2.45;1.10;;;;;;;39.24;nan;100832.72;4995343;28;20053;-73
2022/06/18 08:52:12;;;;;;;1.40;0.98;;;;;;;39.32;nan;100830.22;4992276;28;20096;-73
2022/06/18 08:54:50;;;;;;;3.95;0.90;;;;;;;39.44;nan;100828.31;4992687;28;20420;-73
2022/06/18 08:57:15;;;;;;;1.77;0.90;;;;;;;39.84;nan;100816.69;4992946;28;20038;-71
2022/06/18 08:59:55;;;;;;;1.33;1.00;;;;;;;39.96;nan;100824.22;4993228;28;20117;-71
2022/06/18 09:02:21;;;;;;;2.35;0.93;;;;;;;40.12;nan;100816.03;4988166;28;20042;-71
2022/06/18 09:05:08;;;;;;;1.70;1.10;;;;;;;40.19;nan;100813.50;4990940;28;20042;-71
2022/06/18 09:08:12;;;;;;;1.80;1.02;;;;;;;40.33;nan;100816.78;4991551;28;20214;-71
2022/06/18 09:10:40;;;;;;;1.30;0.82;;;;;;;40.87;nan;100812.88;4994188;28;20097;-71
2022/06/18 09:13:32;;;;;;;1.75;0.90;;;;;;;41.13;nan;100815.25;4994007;28;20027;-71
2022/06/18 09:16:02;;;;;;;2.53;1.00;;;;;;;41.32;nan;100811.84;4993250;28;20499;-71
2022/06/18 09:18:41;;;;;;;1.58;0.90;;;;;;;41.37;nan;100805.22;4992571;28;20053;-71
2022/06/18 09:21:13;;;;;;;1.70;0.80;;;;;;;41.63;nan;100801.97;4993532;28;20212;-71
2022/06/18 09:23:44;;;;;;;1.55;0.60;;;;;;;41.70;nan;100793.84;4991516;28;20036;-70
2022/06/18 09:26:16;;;;;;;2.30;1.00;;;;;;;41.72;nan;100794.28;4992137;28;20470;-71
2022/06/18 09:28:49;;;;;;;2.97;1.10;;;;;;;41.86;nan;100791.06;4997992;28;20026;-71
2022/06/18 09:31:22;;;;;;;0.93;0.70;;;;;;;42.15;nan;100792.59;5005466;28;20134;-71
2022/06/18 09:34:11;;;;;;;1.30;0.80;;;;;;;42.61;nan;100792.09;4994307;28;20438;-71
2022/06/18 09:36:42;;;;;;;3.13;0.80;;;;;;;43.12;nan;100786.41;5001290;28;20034;-71
2022/06/18 09:39:17;;;;;;;2.97;0.90;;;;;;;43.20;nan;100781.81;4999907;28;20415;-71
2022/06/18 09:41:56;;;;;;;1.02;0.70;;;;;;;43.43;nan;100788.25;4976273;28;20028;-71
2022/06/18 09:44:45;;;;;;;0.93;0.60;;;;;;;43.73;nan;100782.00;4998615;28;20042;-71
2022/06/18 09:47:17;;;;;;;1.50;0.80;;;;;;;43.80;nan;100775.75;4976211;28;20030;-71
2022/06/18 09:49:45;;;;;;;1.88;0.70;;;;;;;43.73;nan;100782.00;4991049;28;20049;-71
2022/06/18 09:52:18;;;;;;;1.80;0.80;;;;;;;43.93;nan;100779.94;4988948;28;20511;-73
2022/06/18 09:54:56;;;;;;;1.38;0.80;;;;;;;44.09;nan;100768.69;4991051;28;20043;-72
2022/06/18 09:57:27;;;;;;;2.38;0.65;;;;;;;44.05;nan;100777.00;4974220;28;20030;-72
2022/06/18 10:00:07;;;;;;;0.80;0.63;;;;;;;44.45;nan;100777.59;4988305;28;20121;-75
2022/06/18 10:02:34;;;;;;;;;;;;;;;44.65;nan;100769.91;4986458;28;20034;-72
2022/06/18 10:07:50;;;;;;;1.58;0.80;;;;;;;45.40;nan;100781.97;4987286;28;20407;-72
2022/06/18 10:10:22;;;;;;;1.25;0.80;;;;;;;45.38;nan;100769.56;4994040;28;20099;-72
2022/06/18 10:12:53;;;;;;;1.52;0.85;;;;;;;44.86;nan;100780.53;4994327;28;20027;-72
2022/06/18 10:15:20;;;;;;;2.17;0.90;;;;;;;45.38;nan;100766.78;4993772;28;20069;-72
2022/06/18 10:18:12;;;;;;;1.10;0.77;;;;;;;45.55;nan;100764.16;4992510;28;20041;-72
2022/06/18 10:20:44;;;;;;;2.05;0.90;;;;;;;45.19;nan;100760.22;4992956;28;20088;-72
2022/06/18 10:23:30;;;;;;;3.60;0.90;;;;;;;45.27;nan;100747.16;4992212;28;20053;-72
2022/06/18 10:26:22;;;;;;;2.00;0.90;;;;;;;45.77;nan;100748.41;4970886;28;20031;-72
2022/06/18 10:29:06;;;;;;;2.83;0.80;;;;;;;45.74;nan;100746.38;4987883;28;20038;-72
2022/06/18 10:32:00;;;;;;;0.95;0.68;;;;;;;46.18;nan;100734.31;4979655;28;20047;-72
2022/06/18 10:34:42;;;;;;;2.17;0.73;;;;;;;46.75;nan;100735.84;4992139;28;20125;-72
2022/06/18 10:37:20;;;;;;;1.08;0.70;;;;;;;46.76;nan;100731.84;4992597;28;20034;-72
2022/06/18 10:40:09;;;;;;;2.75;0.75;;;;;;;46.59;nan;100730.56;4991922;28;20042;-73
2022/06/18 10:42:59;;;;;;;1.30;0.77;;;;;;;46.23;nan;100718.38;4966900;28;20081;-72
2022/06/18 10:45:39;;;;;;;1.27;0.80;;;;;;;46.20;nan;100719.97;4990274;28;20096;-72
2022/06/18 10:48:11;;;;;;;2.33;0.65;;;;;;;46.45;nan;100720.09;4991139;28;20030;-72
2022/06/18 10:51:13;;;;;;;1.92;0.73;;;;;;;46.54;nan;100706.56;4991121;28;20044;-72
2022/06/18 10:53:56;;;;;;;2.65;0.90;;;;;;;46.56;nan;100703.38;4973129;28;20510;-72
2022/06/18 10:56:25;;;;;;;1.98;0.85;;;;;;;46.73;nan;100704.66;4986109;28;20030;-72
2022/06/18 10:58:59;;;;;;;1.55;0.80;;;;;;;47.10;nan;100700.75;4990104;28;20439;-73
2022/06/18 11:01:56;;;;;;;1.83;0.90;;;;;;;47.71;nan;100700.78;4991248;28;20125;-72
2022/06/18 11:04:30;;;;;;;1.38;0.80;;;;;;;48.14;nan;100690.28;4988803;28;20026;-72
2022/06/18 11:07:00;;;;;;;1.52;0.70;;;;;;;48.61;nan;100696.56;4988896;28;20504;-72
2022/06/18 11:09:30;;;;;;;1.95;0.90;;;;;;;48.59;nan;100692.56;4980087;28;20447;-73
2022/06/18 11:11:58;;;;;;;2.47;0.80;;;;;;;48.68;nan;100695.72;4992642;28;20045;-72
2022/06/18 11:14:24;;;;;;;2.08;0.70;;;;;;;48.97;nan;100682.31;4990654;28;20289;-72
2022/06/18 11:16:55;;;;;;;2.67;0.85;;;;;;;49.16;nan;100680.19;4990746;28;20038;-73
2022/06/18 11:19:26;;;;;;;;;;;;;;;49.49;nan;100684.31;4985853;28;20039;-73
2022/06/18 11:21:53;;;;;;;1.38;0.80;;;;;;;49.74;nan;100679.25;4988848;28;20004;-73
2022/06/18 11:24:32;;;;;;;2.38;0.80;;;;;;;49.92;nan;100669.84;4989193;28;20416;-73
2022/06/18 11:27:01;;;;;;;1.58;0.70;;;;;;;50.29;nan;100671.03;4987051;28;20041;-72
2022/06/18 11:29:32;;;;;;;2.88;1.00;;;;;;;50.27;nan;100665.03;4989711;28;20038;-73
2022/06/18 11:32:00;;;;;;;4.18;1.30;;;;;;;50.19;nan;100663.53;4991807;28;20181;-73
2022/06/18 11:34:32;;;;;;;4.82;1.25;;;;;;;50.18;nan;100665.56;4991964;28;20149;-73
2022/06/18 11:36:59;;;;;;;2.83;1.10;;;;;;;49.88;nan;100649.41;4991626;28;20046;-73
2022/06/18 11:39:38;;;;;;;3.20;1.10;;;;;;;49.90;nan;100658.22;4980552;28;20098;-73
2022/06/18 11:42:12;;;;;;;3.30;1.10;;;;;;;49.84;nan;100651.44;4970932;28;20134;-73
2022/06/18 11:44:54;;;;;;;5.03;1.02;;;;;;;50.38;nan;100650.84;4971532;28;20042;-73
2022/06/18 11:47:23;;;;;;;5.70;1.40;;;;;;;50.10;nan;100644.34;4986421;28;20427;-73
2022/06/18 11:49:57;;;;;;;4.45;1.33;;;;;;;49.72;nan;100644.34;4990383;28;20042;-72
2022/06/18 11:52:46;;;;;;;2.53;1.10;;;;;;;50.10;nan;100635.91;4988500;28;20046;-72
2022/06/18 11:55:23;;;;;;;6.18;1.42;;;;;;;49.94;nan;100628.84;4989735;28;20066;-73
2022/06/18 11:58:06;;;;;;;5.13;1.40;;;;;;;49.64;nan;100623.16;4988368;28;20411;-73
2022/06/18 12:00:43;;;;;;;3.33;1.45;;;;;;;49.48;nan;100629.31;4990024;28;20030;-73
2022/06/18 12:03:33;;;;;;;7.65;1.50;;;;;;;49.69;nan;100617.88;4989206;28;20526;-72
2022/06/18 12:06:13;;;;;;;;;;;;;;;49.77;nan;100615.78;4989176;28;20042;-72
2022/06/18 12:08:40;;;;;;;3.75;1.20;;;;;;;49.79;nan;100613.34;4990637;28;19917;-73
2022/06/18 12:11:47;;;;;;;3.83;1.23;;;;;;;49.57;nan;100603.56;4990033;28;20038;-72